createdAt,value
2018-08-06T00:00:23.647Z,23.40
2018-08-06T00:02:52.082Z,23.50
2018-08-06T00:05:20.544Z,23.40
2018-08-06T00:07:49.095Z,23.40
2018-08-06T00:10:19.309Z,23.40
2018-08-06T00:12:47.759Z,23.40
2018-08-06T00:15:16.524Z,23.40
2018-08-06T00:17:45.133Z,23.40
2018-08-06T00:20:14.403Z,23.40
2018-08-06T00:22:43.201Z,23.40
2018-08-06T00:25:13.000Z,23.40
2018-08-06T00:27:42.185Z,23.40
2018-08-06T00:30:14.964Z,23.40
2018-08-06T00:32:44.382Z,23.30
2018-08-06T00:35:13.530Z,23.30
2018-08-06T00:37:42.040Z,23.30
2018-08-06T00:40:16.748Z,23.30
2018-08-06T00:42:45.743Z,23.20
2018-08-06T00:45:16.207Z,23.20
2018-08-06T00:47:45.296Z,23.10
2018-08-06T00:50:13.808Z,23.10
2018-08-06T00:52:42.544Z,23.00
2018-08-06T00:55:15.076Z,23.00
2018-08-06T00:57:43.622Z,22.90
2018-08-06T01:00:14.765Z,22.90
2018-08-06T01:02:43.458Z,22.90
2018-08-06T01:05:13.224Z,22.90
2018-08-06T01:07:42.225Z,22.80
2018-08-06T01:10:13.909Z,22.70
2018-08-06T01:12:42.548Z,22.70
2018-08-06T01:15:12.998Z,22.70
2018-08-06T01:17:41.659Z,22.60
2018-08-06T01:22:39.099Z,22.50
2018-08-06T01:25:07.741Z,22.50
2018-08-06T01:27:36.942Z,22.50
2018-08-06T01:30:06.366Z,22.40
2018-08-06T01:32:34.998Z,22.40
2018-08-06T01:35:03.579Z,22.30
2018-08-06T01:37:32.060Z,22.30
2018-08-06T01:40:00.615Z,22.30
2018-08-06T01:42:29.158Z,22.20
2018-08-06T01:44:57.740Z,22.20
2018-08-06T01:47:26.282Z,22.10
2018-08-06T01:49:54.886Z,22.10
2018-08-06T01:52:23.547Z,22.10
2018-08-06T01:54:52.130Z,22.00
2018-08-06T01:59:49.039Z,21.90
2018-08-06T02:02:17.610Z,21.90
2018-08-06T02:04:46.109Z,21.90
2018-08-06T02:07:14.621Z,21.80
2018-08-06T02:09:43.145Z,21.80
2018-08-06T02:12:11.672Z,21.80
2018-08-06T02:14:40.183Z,21.70
2018-08-06T02:17:08.750Z,21.60
2018-08-06T02:19:37.219Z,21.60
2018-08-06T02:22:05.754Z,21.50
2018-08-06T02:24:34.269Z,21.50
2018-08-06T02:27:02.862Z,21.50
2018-08-06T02:34:27.731Z,21.50
2018-08-06T02:36:56.192Z,21.50
2018-08-06T02:39:24.717Z,21.40
2018-08-06T02:41:53.252Z,21.40
2018-08-06T02:46:50.429Z,21.30
2018-08-06T02:49:18.950Z,21.30
2018-08-06T02:51:47.581Z,21.20
2018-08-06T02:56:44.319Z,21.20
2018-08-06T02:59:12.845Z,21.10
2018-08-06T03:01:41.393Z,21.10
2018-08-06T03:04:09.886Z,21.10
2018-08-06T03:06:38.391Z,21.00
2018-08-06T03:09:09.657Z,21.00
2018-08-06T03:11:38.421Z,21.00
2018-08-06T03:14:06.953Z,21.00
2018-08-06T03:16:35.513Z,21.00
2018-08-06T03:19:04.000Z,20.90
2018-08-06T03:21:32.454Z,20.90
2018-08-06T03:24:00.967Z,20.90
2018-08-06T03:26:29.588Z,20.80
2018-08-06T03:28:58.119Z,20.80
2018-08-06T03:31:26.641Z,20.80
2018-08-06T03:33:55.696Z,20.70
2018-08-06T03:36:24.137Z,20.70
2018-08-06T03:38:52.639Z,20.70
2018-08-06T03:41:21.419Z,20.70
2018-08-06T03:43:49.872Z,20.70
2018-08-06T03:46:18.390Z,20.60
2018-08-06T03:48:46.956Z,20.60
2018-08-06T03:51:15.497Z,20.60
2018-08-06T03:53:44.020Z,20.50
2018-08-06T03:56:12.539Z,20.50
2018-08-06T03:58:41.282Z,20.50
2018-08-06T04:01:09.745Z,20.50
2018-08-06T04:03:38.228Z,20.40
2018-08-06T04:06:07.139Z,20.40
2018-08-06T04:08:35.671Z,20.40
2018-08-06T04:11:04.108Z,20.30
2018-08-06T04:13:32.761Z,20.30
2018-08-06T04:16:01.290Z,20.30
2018-08-06T04:18:29.801Z,20.30
2018-08-06T04:20:58.324Z,20.30
2018-08-06T04:23:26.822Z,20.30
2018-08-06T04:28:23.542Z,20.20
2018-08-06T04:30:52.006Z,20.20
2018-08-06T04:33:20.575Z,20.20
2018-08-06T04:35:49.097Z,20.20
2018-08-06T04:38:17.515Z,20.10
2018-08-06T04:40:45.989Z,20.10
2018-08-06T04:43:14.530Z,20.20
2018-08-06T04:45:43.057Z,20.10
2018-08-06T04:48:11.535Z,20.20
2018-08-06T05:05:29.993Z,20.20
2018-08-06T05:07:59.196Z,20.20
2018-08-06T05:10:27.680Z,20.20
2018-08-06T05:12:56.226Z,20.20
2018-08-06T05:15:24.687Z,20.20
2018-08-06T05:17:53.199Z,20.20
2018-08-06T05:20:21.835Z,20.30
2018-08-06T05:25:18.640Z,20.30
2018-08-06T05:27:47.114Z,20.30
2018-08-06T05:30:15.588Z,20.30
2018-08-06T05:32:44.067Z,20.40
2018-08-06T05:35:12.532Z,20.40
2018-08-06T05:37:41.816Z,20.50
2018-08-06T05:40:10.297Z,20.60
2018-08-06T05:42:38.827Z,20.70
2018-08-06T05:47:36.277Z,21.00
2018-08-06T05:50:07.244Z,21.20
2018-08-06T05:52:35.782Z,21.40
2018-08-06T05:55:04.809Z,21.70
2018-08-06T05:57:33.360Z,21.90
2018-08-06T06:00:01.873Z,22.10
2018-08-06T06:02:30.325Z,22.30
2018-08-06T06:04:59.918Z,22.50
2018-08-06T06:07:29.216Z,22.70
2018-08-06T06:09:57.696Z,23.00
2018-08-06T06:12:26.174Z,23.20
2018-08-06T06:14:54.659Z,23.50
2018-08-06T06:17:23.222Z,23.70
2018-08-06T06:19:51.874Z,24.00
2018-08-06T06:22:20.346Z,24.20
2018-08-06T06:29:45.302Z,24.70
2018-08-06T06:32:14.503Z,24.90
2018-08-06T06:34:43.014Z,25.10
2018-08-06T06:37:11.633Z,25.30
2018-08-06T06:39:40.112Z,25.50
2018-08-06T06:42:08.931Z,25.80
2018-08-06T06:44:37.427Z,26.00
2018-08-06T06:47:05.902Z,26.20
2018-08-06T06:49:34.537Z,26.50
2018-08-06T06:54:31.295Z,26.80
2018-08-06T06:56:59.698Z,26.90
2018-08-06T06:59:28.188Z,27.10
2018-08-06T07:01:56.728Z,27.30
2018-08-06T07:04:25.237Z,27.50
2018-08-06T07:06:53.836Z,27.80
2018-08-06T07:09:22.297Z,28.00
2018-08-06T07:11:50.758Z,28.10
2018-08-06T07:14:19.309Z,28.20
2018-08-06T07:16:47.800Z,28.10
2018-08-06T07:19:16.299Z,28.30
2018-08-06T07:21:45.396Z,28.40
2018-08-06T07:24:14.390Z,28.80
2018-08-06T07:26:42.843Z,29.10
2018-08-06T07:31:39.692Z,29.50
2018-08-06T07:34:08.242Z,29.80
2018-08-06T07:36:36.670Z,30.00
2018-08-06T07:39:08.184Z,30.40
2018-08-06T07:41:36.695Z,30.50
2018-08-06T07:44:05.233Z,30.70
2018-08-06T07:46:33.714Z,31.10
2018-08-06T07:49:02.248Z,31.30
2018-08-06T07:51:30.702Z,31.60
2018-08-06T07:53:59.822Z,31.90
2018-08-06T07:56:28.309Z,32.10
2018-08-06T08:01:25.103Z,32.50
2018-08-06T08:03:53.692Z,32.80
2018-08-06T08:06:22.252Z,33.00
2018-08-06T08:11:18.884Z,33.20
2018-08-06T08:13:47.408Z,33.40
2018-08-06T08:16:15.952Z,33.70
2018-08-06T08:21:12.586Z,34.20
2018-08-06T08:23:41.571Z,34.60
2018-08-06T08:26:10.141Z,34.90
2018-08-06T08:28:39.081Z,35.00
2018-08-06T08:31:07.614Z,35.20
2018-08-06T08:33:36.130Z,35.40
2018-08-06T08:36:04.738Z,35.50
2018-08-06T08:38:33.319Z,35.80
2018-08-06T08:41:01.746Z,35.40
2018-08-06T08:43:30.276Z,35.20
2018-08-06T08:45:58.763Z,35.30
2018-08-06T08:48:27.231Z,35.40
2018-08-06T08:50:55.712Z,35.60
2018-08-06T08:53:24.132Z,35.40
2018-08-06T08:55:52.652Z,36.00
2018-08-06T08:58:21.165Z,36.40
2018-08-06T09:00:49.855Z,36.80
2018-08-06T09:03:18.391Z,37.00
2018-08-06T09:05:46.946Z,37.20
2018-08-06T09:08:16.069Z,37.40
2018-08-06T09:10:45.259Z,37.60
2018-08-06T09:13:13.724Z,37.90
2018-08-06T09:15:42.204Z,38.20
2018-08-06T09:18:10.758Z,38.20
2018-08-06T09:20:39.244Z,38.50
2018-08-06T09:23:08.277Z,38.80
2018-08-06T09:25:36.740Z,39.10
2018-08-06T09:28:05.877Z,39.20
2018-08-06T09:30:34.317Z,39.00
2018-08-06T09:33:02.980Z,39.20
2018-08-06T09:35:31.867Z,39.80
2018-08-06T09:38:00.317Z,40.10
2018-08-06T09:40:28.896Z,40.10
2018-08-06T09:42:57.416Z,40.10
2018-08-06T09:45:25.932Z,40.40
2018-08-06T09:47:54.988Z,40.50
2018-08-06T09:50:23.617Z,40.70
2018-08-06T09:52:52.927Z,41.50
2018-08-06T09:55:24.468Z,41.90
2018-08-06T09:57:53.220Z,42.20
2018-08-06T10:00:28.074Z,42.20
2018-08-06T10:02:57.781Z,42.60
2018-08-06T10:05:26.839Z,42.80
2018-08-06T10:07:55.320Z,43.00
2018-08-06T10:10:23.916Z,43.30
2018-08-06T10:12:52.357Z,43.50
2018-08-06T10:15:21.343Z,43.70
2018-08-06T10:17:51.209Z,43.80
2018-08-06T10:20:20.989Z,43.70
2018-08-06T10:22:49.630Z,44.00
2018-08-06T10:25:18.194Z,44.40
2018-08-06T10:27:47.414Z,44.60
2018-08-06T10:30:18.335Z,44.90
2018-08-06T10:32:46.899Z,45.10
2018-08-06T10:35:16.613Z,45.40
2018-08-06T10:37:45.325Z,45.80
2018-08-06T10:40:18.572Z,46.00
2018-08-06T10:42:47.764Z,46.20
2018-08-06T10:45:19.372Z,46.60
2018-08-06T10:47:48.857Z,46.80
2018-08-06T10:50:17.399Z,46.70
2018-08-06T10:52:46.011Z,46.60
2018-08-06T10:55:14.554Z,46.10
2018-08-06T10:57:44.048Z,46.20
2018-08-06T11:00:17.720Z,46.20
2018-08-06T11:02:46.541Z,46.70
2018-08-06T11:05:15.837Z,46.60
2018-08-06T11:07:44.380Z,46.50
2018-08-06T11:10:15.376Z,46.90
2018-08-06T11:12:44.067Z,47.30
2018-08-06T11:17:49.368Z,48.20
2018-08-06T11:20:18.655Z,48.30
2018-08-06T11:22:47.218Z,48.50
2018-08-06T11:25:17.673Z,48.70
2018-08-06T11:27:46.468Z,48.90
2018-08-06T11:30:16.485Z,49.20
2018-08-06T11:32:45.508Z,49.30
2018-08-06T11:35:14.497Z,49.40
2018-08-06T11:37:43.140Z,49.50
2018-08-06T11:40:12.895Z,49.40
2018-08-06T11:42:42.682Z,49.50
2018-08-06T11:45:13.349Z,49.70
2018-08-06T11:47:41.829Z,49.80
2018-08-06T11:50:10.900Z,49.80
2018-08-06T11:52:39.392Z,50.30
2018-08-06T11:55:08.500Z,50.70
2018-08-06T12:00:21.589Z,51.10
2018-08-06T12:02:50.078Z,51.10
2018-08-06T12:05:18.805Z,51.20
2018-08-06T12:07:54.153Z,51.40
2018-08-06T12:10:22.676Z,51.50
2018-08-06T12:12:51.970Z,51.70
2018-08-06T12:15:20.534Z,51.90
2018-08-06T12:17:49.239Z,51.60
2018-08-06T12:20:18.886Z,51.60
2018-08-06T12:22:48.804Z,51.60
2018-08-06T12:25:17.703Z,51.90
2018-08-06T12:27:46.863Z,52.50
2018-08-06T12:30:23.321Z,52.70
2018-08-06T12:32:52.923Z,53.10
2018-08-06T12:35:21.510Z,53.20
2018-08-06T12:37:50.210Z,53.10
2018-08-06T12:40:19.798Z,53.30
2018-08-06T12:42:48.785Z,53.40
2018-08-06T12:45:17.774Z,53.30
2018-08-06T12:47:46.784Z,53.30
2018-08-06T12:50:17.390Z,53.30
2018-08-06T12:52:46.286Z,53.10
2018-08-06T12:55:16.161Z,53.20
2018-08-06T12:57:45.152Z,53.30
2018-08-06T13:00:19.468Z,53.20
2018-08-06T13:02:48.674Z,52.60
2018-08-06T13:05:17.713Z,52.40
2018-08-06T13:07:46.305Z,52.50
2018-08-06T13:10:15.014Z,52.50
2018-08-06T13:12:44.523Z,52.70
2018-08-06T13:15:14.137Z,52.90
2018-08-06T13:17:42.695Z,52.80
2018-08-06T13:20:11.194Z,53.00
2018-08-06T13:22:39.677Z,53.10
2018-08-06T13:25:09.759Z,53.30
2018-08-06T13:27:38.224Z,53.30
2018-08-06T13:30:11.285Z,53.40
2018-08-06T13:32:39.786Z,53.30
2018-08-06T13:35:08.405Z,53.20
2018-08-06T13:37:37.169Z,53.10
2018-08-06T13:40:06.634Z,52.90
2018-08-06T13:42:35.154Z,52.70
2018-08-06T13:45:04.777Z,52.60
2018-08-06T13:47:33.291Z,52.70
2018-08-06T13:50:01.744Z,52.80
2018-08-06T13:54:58.317Z,52.80
2018-08-06T13:57:26.848Z,52.90
2018-08-06T13:59:55.329Z,52.90
2018-08-06T14:02:24.319Z,52.70
2018-08-06T14:04:52.747Z,52.80
2018-08-06T14:07:21.354Z,52.60
2018-08-06T14:09:50.796Z,52.50
2018-08-06T14:12:19.403Z,52.20
2018-08-06T14:14:51.950Z,51.50
2018-08-06T14:17:20.430Z,51.10
2018-08-06T14:19:48.895Z,50.70
2018-08-06T14:22:17.383Z,50.30
2018-08-06T14:24:45.901Z,49.90
2018-08-06T14:27:14.373Z,49.60
2018-08-06T14:29:43.855Z,49.20
2018-08-06T14:32:12.480Z,48.90
2018-08-06T14:34:40.934Z,48.70
2018-08-06T14:37:09.485Z,48.80
2018-08-06T14:39:37.915Z,49.00
2018-08-06T14:42:06.616Z,48.70
2018-08-06T14:44:35.091Z,48.50
2018-08-06T14:47:04.210Z,48.70
2018-08-06T14:49:32.864Z,48.80
2018-08-06T14:52:01.491Z,49.00
2018-08-06T14:54:29.991Z,48.90
2018-08-06T14:56:58.468Z,48.70
2018-08-06T14:59:27.504Z,48.10
2018-08-06T15:01:55.955Z,47.70
2018-08-06T15:04:24.492Z,47.70
2018-08-06T15:06:52.953Z,47.60
2018-08-06T15:09:21.552Z,47.70
2018-08-06T15:11:49.945Z,48.10
2018-08-06T15:14:18.522Z,48.10
2018-08-06T15:16:46.980Z,48.10
2018-08-06T15:19:15.464Z,48.30
2018-08-06T15:21:43.912Z,48.50
2018-08-06T15:24:12.480Z,48.40
2018-08-06T15:26:40.938Z,48.00
2018-08-06T15:29:09.406Z,47.80
2018-08-06T15:31:37.987Z,47.10
2018-08-06T15:34:06.832Z,46.80
2018-08-06T15:36:35.383Z,46.30
2018-08-06T15:39:06.565Z,45.80
2018-08-06T15:41:35.043Z,45.20
2018-08-06T15:44:03.505Z,44.90
2018-08-06T15:49:00.260Z,44.30
2018-08-06T15:51:28.757Z,44.00
2018-08-06T15:53:57.356Z,43.60
2018-08-06T15:56:25.852Z,43.30
2018-08-06T15:58:54.378Z,43.00
2018-08-06T16:01:22.920Z,42.80
2018-08-06T16:03:51.521Z,42.40
2018-08-06T16:06:20.016Z,42.00
2018-08-06T16:08:48.471Z,41.80
2018-08-06T16:11:16.924Z,41.70
2018-08-06T16:13:45.384Z,41.50
2018-08-06T16:16:13.887Z,41.30
2018-08-06T16:18:42.393Z,41.20
2018-08-06T16:21:10.896Z,40.80
2018-08-06T16:23:40.364Z,40.50
2018-08-06T16:26:09.621Z,40.30
2018-08-06T16:28:38.280Z,40.20
2018-08-06T16:31:06.949Z,40.10
2018-08-06T16:33:35.414Z,40.00
2018-08-06T16:36:03.905Z,39.90
2018-08-06T16:38:32.409Z,39.80
2018-08-06T16:41:00.851Z,39.70
2018-08-06T16:43:29.365Z,39.50
2018-08-06T16:45:57.882Z,39.40
2018-08-06T16:48:26.410Z,39.20
2018-08-06T16:50:54.844Z,39.10
2018-08-06T16:53:23.322Z,39.10
2018-08-06T16:55:51.777Z,38.80
2018-08-06T16:58:20.329Z,38.70
2018-08-06T17:00:49.019Z,38.60
2018-08-06T17:03:17.771Z,38.50
2018-08-06T17:05:46.209Z,38.50
2018-08-06T17:08:14.693Z,38.40
2018-08-06T17:10:43.318Z,38.30
2018-08-06T17:13:11.891Z,38.20
2018-08-06T17:15:40.343Z,38.10
2018-08-06T17:18:09.160Z,38.00
2018-08-06T17:20:37.618Z,37.90
2018-08-06T17:23:06.175Z,37.70
2018-08-06T17:25:34.812Z,37.60
2018-08-06T17:28:03.338Z,37.50
2018-08-06T17:30:31.958Z,37.30
2018-08-06T17:33:00.406Z,37.20
2018-08-06T17:35:28.977Z,37.10
2018-08-06T17:37:57.584Z,37.00
2018-08-06T17:40:26.103Z,36.90
2018-08-06T17:42:54.731Z,36.80
2018-08-06T17:45:24.109Z,36.60
2018-08-06T17:47:52.598Z,36.50
2018-08-06T17:50:22.313Z,36.40
2018-08-06T17:52:51.706Z,36.40
2018-08-06T17:55:21.081Z,36.30
2018-08-06T17:57:50.057Z,36.20
2018-08-06T18:00:19.087Z,36.10
2018-08-06T18:02:47.960Z,35.90
2018-08-06T18:05:17.229Z,35.80
2018-08-06T18:10:15.310Z,35.60
2018-08-06T18:12:44.576Z,35.60
2018-08-06T18:15:13.394Z,35.50
2018-08-06T18:17:41.866Z,35.50
2018-08-06T18:20:14.073Z,35.40
2018-08-06T18:22:42.596Z,35.40
2018-08-06T18:25:12.815Z,35.30
2018-08-06T18:27:41.706Z,35.10
2018-08-06T18:30:13.779Z,35.00
2018-08-06T18:32:42.593Z,34.90
2018-08-06T18:35:12.968Z,34.80
2018-08-06T18:37:41.566Z,34.70
2018-08-06T18:40:10.897Z,34.50
2018-08-06T18:42:39.978Z,34.50
2018-08-06T18:45:12.468Z,34.40
2018-08-06T18:47:42.050Z,34.30
2018-08-06T18:50:11.989Z,34.20
2018-08-06T18:52:41.009Z,34.20
2018-08-06T18:55:12.178Z,34.10
2018-08-06T18:57:41.234Z,34.00
2018-08-06T19:00:12.881Z,33.90
2018-08-06T23:10:45.852Z,26.80
2018-08-06T23:13:14.336Z,26.50
